createdAt,value
2022-10-31T00:00:09.488Z,11.94
2022-10-31T00:02:11.222Z,11.90
2022-10-31T00:04:13.001Z,11.91
2022-10-31T00:06:14.722Z,11.92
2022-10-31T00:08:16.963Z,11.90
2022-10-31T00:10:18.426Z,11.91
2022-10-31T00:12:21.269Z,11.90
2022-10-31T00:14:22.750Z,11.90
2022-10-31T00:16:25.782Z,11.90
2022-10-31T00:18:27.337Z,11.88
2022-10-31T00:20:30.222Z,11.85
2022-10-31T00:22:31.707Z,11.83
2022-10-31T00:24:33.235Z,11.81
2022-10-31T00:26:34.957Z,11.78
2022-10-31T00:28:37.902Z,11.82
2022-10-31T00:30:39.774Z,11.73
2022-10-31T00:32:41.285Z,11.73
2022-10-31T00:34:42.773Z,11.73
2022-10-31T00:36:44.346Z,11.77
2022-10-31T00:38:47.132Z,11.76
2022-10-31T00:40:48.788Z,11.67
2022-10-31T00:42:50.409Z,11.70
2022-10-31T00:44:53.315Z,11.70
2022-10-31T00:46:54.870Z,11.70
2022-10-31T00:48:56.385Z,11.78
2022-10-31T00:51:00.753Z,11.75
2022-10-31T00:53:02.234Z,11.73
2022-10-31T00:55:04.372Z,11.71
2022-10-31T00:57:06.015Z,11.65
2022-10-31T00:59:07.508Z,11.60
2022-10-31T01:01:10.528Z,11.61
2022-10-31T01:03:12.128Z,11.64
2022-10-31T01:05:13.683Z,11.65
2022-10-31T01:07:15.239Z,11.68
2022-10-31T01:09:16.785Z,11.62
2022-10-31T01:11:21.501Z,11.62
2022-10-31T01:13:23.026Z,11.56
2022-10-31T01:15:24.651Z,11.56
2022-10-31T01:17:27.505Z,11.53
2022-10-31T01:19:29.068Z,11.52
2022-10-31T01:21:34.514Z,11.50
2022-10-31T01:23:37.108Z,11.48
2022-10-31T01:25:38.656Z,11.48
2022-10-31T01:27:40.176Z,11.53
2022-10-31T01:29:41.654Z,11.52
2022-10-31T01:31:43.268Z,11.52
2022-10-31T01:33:48.583Z,11.54
2022-10-31T01:35:50.076Z,11.54
2022-10-31T01:37:51.632Z,11.54
2022-10-31T01:39:53.186Z,11.50
2022-10-31T01:41:55.213Z,11.52
2022-10-31T01:43:59.255Z,11.51
2022-10-31T01:46:00.893Z,11.49
2022-10-31T01:48:02.841Z,11.55
2022-10-31T01:50:13.143Z,11.49
2022-10-31T01:52:21.106Z,11.43
2022-10-31T01:54:24.946Z,11.34
2022-10-31T01:56:27.089Z,11.36
2022-10-31T01:58:31.995Z,11.32
2022-10-31T02:00:33.979Z,11.39
2022-10-31T02:02:36.106Z,11.32
2022-10-31T02:04:38.070Z,11.38
2022-10-31T02:06:47.434Z,11.29
2022-10-31T02:08:49.212Z,11.35
2022-10-31T02:10:53.892Z,11.34
2022-10-31T02:12:59.038Z,11.37
2022-10-31T02:15:01.768Z,11.39
2022-10-31T02:17:03.363Z,11.34
2022-10-31T02:19:09.424Z,11.34
2022-10-31T02:21:19.364Z,11.32
2022-10-31T02:23:50.308Z,11.30
2022-10-31T02:26:19.727Z,11.23
2022-10-31T02:28:47.110Z,11.23
2022-10-31T02:31:04.129Z,11.24
2022-10-31T02:33:21.231Z,11.23
2022-10-31T02:35:35.600Z,11.21
2022-10-31T02:37:44.572Z,11.19
2022-10-31T02:39:55.101Z,11.23
2022-10-31T02:42:04.942Z,11.19
2022-10-31T02:44:11.148Z,11.16
2022-10-31T02:46:20.260Z,11.13
2022-10-31T02:48:26.285Z,11.19
2022-10-31T02:50:31.905Z,11.21
2022-10-31T02:52:35.125Z,11.18
2022-10-31T02:54:37.156Z,11.13
2022-10-31T02:56:39.109Z,11.18
2022-10-31T02:58:46.330Z,11.15
2022-10-31T03:01:05.001Z,11.20
2022-10-31T03:03:15.754Z,11.19
2022-10-31T03:05:29.848Z,11.14
2022-10-31T03:07:35.501Z,11.19
2022-10-31T03:09:48.733Z,11.19
2022-10-31T03:11:58.424Z,11.20
2022-10-31T03:14:12.589Z,11.17
2022-10-31T03:16:17.015Z,11.18
2022-10-31T03:18:24.246Z,11.12
2022-10-31T03:20:34.486Z,11.14
2022-10-31T03:22:39.749Z,11.11
2022-10-31T03:24:42.823Z,11.23
2022-10-31T03:26:47.831Z,11.17
2022-10-31T03:28:54.592Z,11.18
2022-10-31T03:30:58.202Z,11.14
2022-10-31T03:33:04.112Z,11.13
2022-10-31T03:35:10.763Z,11.08
2022-10-31T03:37:17.781Z,11.08
2022-10-31T03:39:22.325Z,11.06
2022-10-31T03:41:29.195Z,11.07
2022-10-31T03:43:38.336Z,11.12
2022-10-31T03:45:44.069Z,11.11
2022-10-31T03:47:45.629Z,11.19
2022-10-31T03:49:47.190Z,11.11
2022-10-31T03:51:55.786Z,11.09
2022-10-31T03:54:03.409Z,11.14
2022-10-31T03:56:12.280Z,11.19
2022-10-31T03:58:22.347Z,11.16
2022-10-31T04:00:24.194Z,11.17
2022-10-31T04:02:32.114Z,11.22
2022-10-31T04:04:38.031Z,11.14
2022-10-31T04:06:42.690Z,11.13
2022-10-31T04:08:50.042Z,11.05
2022-10-31T04:10:53.638Z,11.04
2022-10-31T04:13:02.929Z,10.97
2022-10-31T04:15:08.391Z,11.01
2022-10-31T04:17:19.213Z,10.92
2022-10-31T04:19:20.747Z,10.92
2022-10-31T04:21:28.333Z,10.91
2022-10-31T04:23:29.985Z,10.95
2022-10-31T04:25:32.849Z,10.93
2022-10-31T04:27:34.453Z,10.95
2022-10-31T04:29:35.988Z,10.93
2022-10-31T04:31:37.478Z,10.99
2022-10-31T04:33:39.044Z,10.96
2022-10-31T04:35:41.018Z,10.93
2022-10-31T04:37:51.552Z,10.92
2022-10-31T04:39:53.084Z,10.91
2022-10-31T04:41:55.921Z,10.91
2022-10-31T04:43:57.456Z,10.85
2022-10-31T04:45:58.973Z,10.85
2022-10-31T04:48:00.773Z,10.82
2022-10-31T04:50:03.194Z,10.85
2022-10-31T04:52:04.889Z,10.84
2022-10-31T04:54:06.499Z,10.83
2022-10-31T04:56:08.123Z,10.86
2022-10-31T04:58:11.656Z,10.87
2022-10-31T05:00:15.263Z,10.87
2022-10-31T05:02:18.698Z,10.87
2022-10-31T05:04:20.336Z,10.82
2022-10-31T05:06:21.847Z,10.82
2022-10-31T05:08:23.333Z,10.87
2022-10-31T05:10:27.853Z,10.75
2022-10-31T05:12:29.304Z,10.78
2022-10-31T05:14:32.156Z,10.78
2022-10-31T05:16:33.705Z,10.79
2022-10-31T05:18:35.285Z,10.84
2022-10-31T05:20:36.778Z,10.83
2022-10-31T05:22:38.428Z,10.86
2022-10-31T05:24:39.962Z,10.83
2022-10-31T05:26:41.975Z,10.72
2022-10-31T05:28:43.513Z,10.70
2022-10-31T05:30:46.442Z,10.74
2022-10-31T05:32:49.572Z,10.72
2022-10-31T05:34:51.117Z,10.78
2022-10-31T05:36:52.642Z,10.67
2022-10-31T05:38:54.175Z,10.73
2022-10-31T05:40:58.215Z,10.71
2022-10-31T05:43:02.574Z,10.69
2022-10-31T05:45:05.151Z,10.65
2022-10-31T05:47:08.090Z,10.66
2022-10-31T05:49:09.622Z,10.57
2022-10-31T05:51:11.105Z,10.59
2022-10-31T05:53:12.623Z,10.59
2022-10-31T05:55:14.335Z,10.63
2022-10-31T05:57:15.830Z,10.64
2022-10-31T05:59:20.442Z,10.64
2022-10-31T06:01:22.094Z,10.64
2022-10-31T06:03:26.274Z,10.66
2022-10-31T06:05:28.245Z,10.67
2022-10-31T06:07:33.343Z,10.67
2022-10-31T06:09:34.808Z,10.69
2022-10-31T06:11:36.360Z,10.64
2022-10-31T06:13:37.823Z,10.65
2022-10-31T06:15:39.340Z,10.67
2022-10-31T06:17:40.953Z,10.77
2022-10-31T06:19:43.954Z,10.76
2022-10-31T06:21:45.464Z,10.80
2022-10-31T06:23:48.874Z,10.78
2022-10-31T06:25:52.223Z,10.84
2022-10-31T06:27:53.857Z,10.85
2022-10-31T06:29:55.385Z,10.89
2022-10-31T06:31:56.965Z,10.89
2022-10-31T06:33:58.507Z,10.92
2022-10-31T06:36:01.695Z,10.93
2022-10-31T06:38:03.838Z,11.18
2022-10-31T06:40:06.457Z,11.21
2022-10-31T06:42:08.026Z,11.25
2022-10-31T06:44:09.583Z,11.47
2022-10-31T06:46:11.125Z,11.36
2022-10-31T06:48:17.203Z,11.27
2022-10-31T06:50:24.205Z,11.29
2022-10-31T06:52:27.107Z,11.40
2022-10-31T06:54:28.691Z,11.41
2022-10-31T06:56:30.176Z,11.49
2022-10-31T06:58:31.697Z,11.53
2022-10-31T07:00:33.887Z,11.51
2022-10-31T07:02:35.475Z,11.59
2022-10-31T07:04:37.074Z,11.60
2022-10-31T07:06:39.003Z,11.60
2022-10-31T07:08:41.988Z,11.68
2022-10-31T07:10:44.006Z,11.67
2022-10-31T07:12:45.560Z,11.85
2022-10-31T07:14:47.020Z,11.90
2022-10-31T07:16:50.183Z,11.97
2022-10-31T07:18:51.936Z,11.95
2022-10-31T07:20:54.011Z,11.97
2022-10-31T07:22:55.592Z,12.14
2022-10-31T07:24:58.775Z,12.21
2022-10-31T07:27:03.225Z,12.27
2022-10-31T07:29:04.829Z,12.43
2022-10-31T07:31:06.947Z,12.51
2022-10-31T07:33:09.514Z,12.57
2022-10-31T07:35:13.128Z,12.64
2022-10-31T07:37:14.802Z,12.77
2022-10-31T07:39:16.377Z,12.94
2022-10-31T07:41:21.744Z,13.08
2022-10-31T07:43:23.325Z,13.15
2022-10-31T07:45:25.011Z,13.19
2022-10-31T07:47:29.480Z,13.32
2022-10-31T07:49:31.433Z,13.40
2022-10-31T07:51:33.073Z,13.50
2022-10-31T07:53:34.592Z,13.44
2022-10-31T07:55:37.102Z,13.52
2022-10-31T07:57:40.034Z,13.62
2022-10-31T07:59:41.583Z,13.76
2022-10-31T08:01:43.123Z,13.94
2022-10-31T08:03:44.728Z,14.00
2022-10-31T08:05:46.604Z,14.10
2022-10-31T08:07:48.169Z,14.05
2022-10-31T08:09:49.805Z,14.03
2022-10-31T08:11:51.331Z,14.00
2022-10-31T08:13:54.305Z,13.94
2022-10-31T08:15:55.913Z,13.95
2022-10-31T08:17:57.926Z,13.88
2022-10-31T08:19:59.744Z,13.93
2022-10-31T08:22:01.322Z,13.97
2022-10-31T08:24:02.898Z,14.05
2022-10-31T08:26:04.720Z,14.05
2022-10-31T08:28:07.109Z,14.10
2022-10-31T08:30:11.278Z,14.10
2022-10-31T08:32:12.939Z,14.17
2022-10-31T08:34:14.729Z,14.17
2022-10-31T08:36:16.307Z,14.19
2022-10-31T08:38:18.088Z,14.15
2022-10-31T08:40:23.024Z,14.14
2022-10-31T08:42:24.600Z,14.06
2022-10-31T08:44:26.253Z,14.00
2022-10-31T08:46:29.469Z,13.88
2022-10-31T08:48:31.080Z,14.00
2022-10-31T08:50:34.560Z,14.09
2022-10-31T08:53:02.833Z,14.17
2022-10-31T08:54:57.901Z,14.25
2022-10-31T08:56:59.512Z,14.29
2022-10-31T08:59:04.425Z,14.26
2022-10-31T09:01:06.288Z,14.23
2022-10-31T09:03:12.544Z,14.26
2022-10-31T09:05:14.317Z,14.46
2022-10-31T09:07:23.282Z,14.62
2022-10-31T09:09:25.474Z,14.62
2022-10-31T09:11:27.081Z,14.68
2022-10-31T09:13:30.566Z,14.56
2022-10-31T09:15:32.307Z,14.50
2022-10-31T09:17:36.416Z,14.50
2022-10-31T09:19:39.390Z,14.55
2022-10-31T09:21:41.244Z,14.52
2022-10-31T09:23:43.074Z,14.47
2022-10-31T09:25:50.023Z,14.51
2022-10-31T09:27:52.260Z,14.53
2022-10-31T09:29:53.842Z,14.52
2022-10-31T09:31:57.030Z,14.55
2022-10-31T09:33:58.636Z,14.62
2022-10-31T09:36:01.704Z,14.72
2022-10-31T09:38:05.015Z,14.76
2022-10-31T09:40:07.075Z,14.82
2022-10-31T09:42:29.942Z,14.84
2022-10-31T09:44:45.215Z,14.81
2022-10-31T09:46:54.492Z,14.89
2022-10-31T09:49:17.625Z,14.92
2022-10-31T09:51:24.447Z,14.87
2022-10-31T09:53:33.121Z,14.81
2022-10-31T09:55:38.051Z,14.76
2022-10-31T09:57:42.503Z,14.72
2022-10-31T09:59:45.940Z,14.63
2022-10-31T10:01:51.879Z,14.49
2022-10-31T10:03:58.415Z,14.47
2022-10-31T10:06:14.050Z,14.48
2022-10-31T10:08:20.650Z,14.46
2022-10-31T10:10:30.140Z,14.34
2022-10-31T10:12:44.329Z,14.48
2022-10-31T10:14:57.512Z,14.60
2022-10-31T10:17:13.090Z,14.65
2022-10-31T10:19:31.278Z,14.62
2022-10-31T10:21:42.914Z,14.62
2022-10-31T10:23:57.991Z,14.64
2022-10-31T10:26:13.852Z,14.71
2022-10-31T10:28:22.163Z,14.79
2022-10-31T10:30:31.249Z,14.82
2022-10-31T10:32:40.157Z,14.82
2022-10-31T10:34:46.453Z,14.89
2022-10-31T10:36:53.017Z,14.82
2022-10-31T10:39:00.989Z,14.81
2022-10-31T10:41:06.408Z,14.88
2022-10-31T10:43:32.829Z,14.88
2022-10-31T10:45:34.550Z,15.00
2022-10-31T10:47:42.211Z,14.99
2022-10-31T10:49:45.918Z,14.94
2022-10-31T10:54:53.810Z,14.99
2022-10-31T10:57:06.799Z,15.00
2022-10-31T10:59:12.906Z,15.05
2022-10-31T11:03:25.669Z,15.06
2022-10-31T11:05:36.269Z,15.19
2022-10-31T11:07:40.851Z,15.29
2022-10-31T11:09:43.795Z,15.32
2022-10-31T11:11:45.570Z,15.37
2022-10-31T11:13:50.152Z,15.34
2022-10-31T11:15:56.718Z,15.40
2022-10-31T11:17:58.670Z,15.34
2022-10-31T11:20:06.316Z,15.43
2022-10-31T11:22:08.218Z,15.48
2022-10-31T11:24:15.931Z,15.49
2022-10-31T11:26:21.585Z,15.51
2022-10-31T11:28:23.393Z,15.47
2022-10-31T11:30:27.750Z,15.51
2022-10-31T11:32:29.284Z,15.49
2022-10-31T11:34:33.789Z,15.47
2022-10-31T11:36:40.231Z,15.54
2022-10-31T11:38:43.651Z,15.65
2022-10-31T11:40:58.627Z,15.78
2022-10-31T11:43:01.883Z,15.91
2022-10-31T11:45:14.623Z,16.01
2022-10-31T11:47:24.489Z,16.03
2022-10-31T11:49:31.206Z,16.08
2022-10-31T11:51:35.586Z,16.18
2022-10-31T11:53:39.580Z,16.32
2022-10-31T11:55:41.112Z,16.38
2022-10-31T11:57:45.712Z,16.42
2022-10-31T11:59:53.672Z,16.46
2022-10-31T12:01:57.371Z,16.50
2022-10-31T12:04:07.377Z,16.54
2022-10-31T12:06:13.260Z,16.61
2022-10-31T12:08:14.874Z,16.65
2022-10-31T12:10:21.327Z,16.73
2022-10-31T12:12:51.774Z,16.83
2022-10-31T12:15:10.790Z,16.88
2022-10-31T12:17:16.306Z,16.94
2022-10-31T12:19:28.831Z,16.93
2022-10-31T12:21:53.165Z,16.90
2022-10-31T12:24:04.985Z,16.94
2022-10-31T12:26:16.473Z,16.99
2022-10-31T12:28:46.410Z,17.06
2022-10-31T12:31:10.675Z,17.12
2022-10-31T12:33:24.369Z,17.16
2022-10-31T12:35:41.922Z,17.14
2022-10-31T12:38:06.006Z,17.31
2022-10-31T12:40:29.042Z,17.35
2022-10-31T12:42:46.609Z,17.29
2022-10-31T12:45:04.914Z,17.31
2022-10-31T12:47:27.402Z,17.39
2022-10-31T12:49:43.110Z,17.37
2022-10-31T12:51:51.918Z,17.49
2022-10-31T12:54:14.601Z,17.56
2022-10-31T12:56:32.571Z,17.59
2022-10-31T12:58:39.619Z,17.58
2022-10-31T13:00:48.838Z,17.54
2022-10-31T13:02:55.761Z,17.46
2022-10-31T13:05:02.709Z,17.52
2022-10-31T13:07:09.503Z,17.60
2022-10-31T13:09:15.691Z,17.70
2022-10-31T13:11:22.439Z,17.74
2022-10-31T13:13:28.421Z,17.67
2022-10-31T13:15:42.146Z,17.60
2022-10-31T13:17:48.036Z,17.57
2022-10-31T13:19:52.801Z,17.52
2022-10-31T13:22:04.066Z,17.48
2022-10-31T13:24:13.261Z,17.51
2022-10-31T13:26:22.510Z,17.72
2022-10-31T13:28:34.664Z,17.64
2022-10-31T13:30:40.986Z,17.59
2022-10-31T13:32:49.748Z,17.49
2022-10-31T13:34:56.006Z,17.50
2022-10-31T13:37:05.226Z,17.54
2022-10-31T13:39:24.515Z,17.55
2022-10-31T13:41:41.499Z,17.51
2022-10-31T13:44:01.689Z,17.58
2022-10-31T13:46:03.354Z,17.70
2022-10-31T13:48:20.841Z,17.62
2022-10-31T13:50:26.168Z,17.54
2022-10-31T13:52:27.995Z,17.55
2022-10-31T13:54:34.328Z,17.43
2022-10-31T13:56:36.046Z,17.33
2022-10-31T13:58:38.915Z,17.25
2022-10-31T14:00:44.587Z,17.17
2022-10-31T14:02:48.580Z,17.05
2022-10-31T14:07:08.930Z,17.01
2022-10-31T14:09:26.849Z,16.92
2022-10-31T14:11:34.539Z,16.86
2022-10-31T14:13:44.119Z,16.82
2022-10-31T14:15:55.208Z,16.79
2022-10-31T14:18:04.554Z,16.74
2022-10-31T14:20:33.043Z,16.71
2022-10-31T14:22:42.355Z,16.68
2022-10-31T14:24:44.701Z,16.63
2022-10-31T14:26:53.997Z,16.60
2022-10-31T14:28:57.323Z,16.56
2022-10-31T14:31:00.825Z,16.53
2022-10-31T14:33:21.285Z,16.48
2022-10-31T14:35:26.483Z,16.41
2022-10-31T14:37:56.327Z,16.36
2022-10-31T14:40:18.489Z,16.33
2022-10-31T14:42:34.831Z,16.32
2022-10-31T14:44:50.282Z,16.32
2022-10-31T14:47:00.379Z,16.29
2022-10-31T14:49:31.166Z,16.26
2022-10-31T14:51:39.456Z,16.25
2022-10-31T14:53:47.748Z,16.17
2022-10-31T14:55:52.430Z,16.08
2022-10-31T14:58:00.611Z,16.11
2022-10-31T15:00:05.240Z,16.11
2022-10-31T15:02:15.886Z,16.06
2022-10-31T15:04:24.072Z,15.97
2022-10-31T15:06:27.398Z,15.93
2022-10-31T15:08:34.320Z,15.87
2022-10-31T15:10:38.331Z,15.87
2022-10-31T15:12:42.805Z,15.78
2022-10-31T15:14:44.379Z,15.72
2022-10-31T15:16:48.932Z,15.66
2022-10-31T15:18:56.092Z,15.50
2022-10-31T15:20:59.436Z,15.44
2022-10-31T15:23:01.482Z,15.37
2022-10-31T15:25:03.427Z,15.29
2022-10-31T15:27:11.547Z,15.27
2022-10-31T15:29:17.186Z,15.21
2022-10-31T15:31:19.036Z,15.17
2022-10-31T15:33:22.856Z,15.21
2022-10-31T15:35:27.165Z,15.07
2022-10-31T15:37:31.791Z,15.02
2022-10-31T15:39:33.360Z,15.01
2022-10-31T15:41:36.947Z,14.91
2022-10-31T15:43:40.992Z,14.83
2022-10-31T15:45:43.475Z,14.78
2022-10-31T15:47:49.133Z,14.72
2022-10-31T15:49:54.949Z,14.69
2022-10-31T15:51:56.734Z,14.76
2022-10-31T15:53:59.470Z,14.72
2022-10-31T15:56:04.776Z,14.64
2022-10-31T15:58:12.797Z,14.60
2022-10-31T16:00:25.805Z,14.53
2022-10-31T16:02:28.314Z,14.47
2022-10-31T16:04:30.793Z,14.43
2022-10-31T16:06:34.705Z,14.36
2022-10-31T16:08:37.883Z,14.34
2022-10-31T16:10:41.779Z,14.27
2022-10-31T16:12:45.765Z,14.23
2022-10-31T16:14:47.730Z,14.17
2022-10-31T16:16:53.094Z,14.11
2022-10-31T16:18:56.522Z,14.10
2022-10-31T16:20:58.567Z,14.05
2022-10-31T16:23:00.809Z,13.97
2022-10-31T16:25:09.705Z,13.99
2022-10-31T16:27:19.454Z,13.90
2022-10-31T16:29:27.266Z,13.90
2022-10-31T16:31:31.677Z,13.87
2022-10-31T16:33:36.082Z,13.84
2022-10-31T16:35:39.259Z,13.78
2022-10-31T16:37:41.485Z,13.74
2022-10-31T16:39:43.005Z,13.75
2022-10-31T16:41:49.659Z,13.69
2022-10-31T16:43:52.621Z,13.69
2022-10-31T16:45:54.131Z,13.70
2022-10-31T16:48:03.926Z,13.68
2022-10-31T16:50:17.008Z,13.68
2022-10-31T16:52:18.728Z,13.67
2022-10-31T16:54:20.302Z,13.68
2022-10-31T16:56:31.329Z,13.64
2022-10-31T16:58:35.344Z,13.61
2022-10-31T17:00:37.263Z,13.60
2022-10-31T17:02:39.082Z,13.59
2022-10-31T17:04:40.596Z,13.56
2022-10-31T17:06:43.524Z,13.53
2022-10-31T17:08:45.064Z,13.56
2022-10-31T17:10:48.619Z,13.54
2022-10-31T17:12:51.170Z,13.52
2022-10-31T17:14:52.940Z,13.53
2022-10-31T17:17:01.925Z,13.51
2022-10-31T17:19:03.674Z,13.52
2022-10-31T17:21:05.920Z,13.58
2022-10-31T17:23:10.033Z,13.56
2022-10-31T17:25:14.573Z,13.60
2022-10-31T17:27:16.116Z,13.60
2022-10-31T17:29:17.624Z,13.66
2022-10-31T17:31:22.073Z,13.65
2022-10-31T17:33:23.788Z,13.66
2022-10-31T17:35:25.713Z,13.55
2022-10-31T17:37:27.211Z,13.51
2022-10-31T17:39:30.093Z,13.45
2022-10-31T17:41:31.555Z,13.43
2022-10-31T17:43:33.079Z,13.50
2022-10-31T17:45:34.681Z,13.52
2022-10-31T17:47:36.290Z,13.45
2022-10-31T17:49:40.063Z,13.37
2022-10-31T17:51:41.793Z,13.30
2022-10-31T17:53:43.387Z,13.30
2022-10-31T17:55:46.431Z,13.27
2022-10-31T17:57:48.050Z,13.31
2022-10-31T17:59:49.596Z,13.32
2022-10-31T18:01:51.241Z,13.36
2022-10-31T18:03:52.822Z,13.32
2022-10-31T18:05:56.743Z,13.32
2022-10-31T18:08:03.782Z,13.24
2022-10-31T18:10:06.366Z,13.22
2022-10-31T18:12:09.425Z,13.24
2022-10-31T18:14:11.162Z,13.24
2022-10-31T18:16:15.033Z,13.22
2022-10-31T18:18:16.853Z,13.23
2022-10-31T18:20:18.389Z,13.17
2022-10-31T18:22:22.584Z,13.18
2022-10-31T18:24:24.247Z,13.18
2022-10-31T18:26:27.552Z,13.19
2022-10-31T18:28:30.544Z,13.35
2022-10-31T18:30:32.656Z,13.45
2022-10-31T18:32:34.359Z,13.52
2022-10-31T18:34:36.035Z,13.52
2022-10-31T18:36:37.573Z,13.59
2022-10-31T18:38:40.069Z,13.53
2022-10-31T18:40:41.648Z,13.54
2022-10-31T18:42:43.276Z,13.46
2022-10-31T18:44:46.194Z,13.49
2022-10-31T18:46:50.562Z,13.43
2022-10-31T18:48:52.237Z,13.45
2022-10-31T18:50:53.868Z,13.45
2022-10-31T18:52:55.946Z,13.36
2022-10-31T18:54:57.475Z,13.24
2022-10-31T18:56:58.992Z,13.20
2022-10-31T18:59:02.526Z,13.20
2022-10-31T19:01:08.127Z,13.35
2022-10-31T19:03:09.833Z,13.33
2022-10-31T19:05:14.415Z,13.39
2022-10-31T19:07:15.993Z,13.27
2022-10-31T19:09:17.647Z,13.29
2022-10-31T19:11:19.452Z,13.22
2022-10-31T19:13:21.086Z,13.24
2022-10-31T19:15:22.755Z,13.10
2022-10-31T19:17:26.119Z,13.07
2022-10-31T19:19:27.727Z,13.13
2022-10-31T19:21:29.497Z,13.19
2022-10-31T19:23:33.902Z,13.24
2022-10-31T19:25:35.679Z,13.21
2022-10-31T19:27:37.364Z,13.24
2022-10-31T19:29:39.168Z,13.19
2022-10-31T19:31:40.922Z,13.15
2022-10-31T19:33:43.882Z,13.20
2022-10-31T19:35:45.613Z,13.25
2022-10-31T19:37:49.701Z,13.13
2022-10-31T19:39:51.866Z,13.11
2022-10-31T19:41:53.509Z,13.13
2022-10-31T19:43:55.586Z,13.14
2022-10-31T19:45:58.531Z,13.17
2022-10-31T19:48:00.676Z,13.15
2022-10-31T19:50:06.340Z,13.23
2022-10-31T19:52:08.054Z,13.17
2022-10-31T19:54:10.799Z,13.23
2022-10-31T19:56:14.425Z,13.27
2022-10-31T19:58:16.117Z,13.23
2022-10-31T20:00:20.792Z,13.19
2022-10-31T20:02:22.419Z,13.18
2022-10-31T20:04:24.031Z,13.20
2022-10-31T20:06:29.012Z,13.17
2022-10-31T20:08:30.607Z,13.11
2022-10-31T20:10:35.024Z,13.12
2022-10-31T20:12:36.591Z,13.09
2022-10-31T20:14:38.130Z,13.03
2022-10-31T20:16:39.694Z,13.02
2022-10-31T20:18:41.825Z,12.99
2022-10-31T20:20:46.437Z,12.91
2022-10-31T20:22:49.435Z,12.95
2022-10-31T20:24:53.989Z,12.96
2022-10-31T20:26:55.518Z,12.96
2022-10-31T20:28:57.862Z,12.93
2022-10-31T20:31:00.124Z,12.90
2022-10-31T20:33:01.780Z,12.88
2022-10-31T20:35:03.708Z,12.82
2022-10-31T20:37:05.505Z,12.88
2022-10-31T20:39:08.747Z,12.83
2022-10-31T20:41:11.299Z,12.82
2022-10-31T20:43:12.956Z,12.86
2022-10-31T20:45:14.590Z,12.85
2022-10-31T20:47:16.102Z,12.85
2022-10-31T20:49:17.666Z,12.87
2022-10-31T20:51:21.253Z,12.91
2022-10-31T20:53:22.839Z,12.88
2022-10-31T20:55:25.833Z,12.84
2022-10-31T20:57:27.426Z,12.84
2022-10-31T20:59:29.047Z,12.76
2022-10-31T21:01:32.350Z,12.81
2022-10-31T21:03:34.091Z,12.75
2022-10-31T21:05:35.612Z,12.79
2022-10-31T21:07:37.218Z,12.75
2022-10-31T21:09:38.988Z,12.76
2022-10-31T21:11:41.981Z,12.76
2022-10-31T21:13:45.053Z,12.69
2022-10-31T21:15:46.923Z,12.72
2022-10-31T21:17:48.438Z,12.68
2022-10-31T21:19:49.987Z,12.72
2022-10-31T21:21:51.521Z,12.65
2022-10-31T21:23:54.711Z,12.67
2022-10-31T21:25:56.485Z,12.60
2022-10-31T21:27:59.686Z,12.60
2022-10-31T21:30:01.511Z,12.50
2022-10-31T21:32:06.264Z,12.46
2022-10-31T21:34:10.336Z,12.37
2022-10-31T21:36:12.351Z,12.34
2022-10-31T21:38:14.104Z,12.28
2022-10-31T21:40:15.640Z,12.28
2022-10-31T21:42:21.346Z,12.27
2022-10-31T21:44:27.218Z,12.24
2022-10-31T21:46:31.224Z,12.22
2022-10-31T21:48:33.338Z,12.17
2022-10-31T21:50:35.344Z,12.21
2022-10-31T21:52:39.584Z,12.21
2022-10-31T21:54:41.137Z,12.16
2022-10-31T21:56:43.156Z,12.14
2022-10-31T21:58:45.209Z,12.11
2022-10-31T22:00:48.088Z,12.13
2022-10-31T22:02:49.653Z,12.08
2022-10-31T22:04:51.278Z,12.07
2022-10-31T22:06:53.158Z,12.06
2022-10-31T22:08:54.874Z,12.01
2022-10-31T22:10:56.459Z,11.97
2022-10-31T22:12:57.945Z,12.11
2022-10-31T22:14:59.524Z,12.15
2022-10-31T22:17:02.501Z,12.16
2022-10-31T22:19:05.293Z,12.22
2022-10-31T22:21:09.530Z,12.20
2022-10-31T22:23:11.066Z,12.21
2022-10-31T22:25:12.578Z,12.17
2022-10-31T22:27:14.109Z,12.21
2022-10-31T22:29:17.198Z,12.25
2022-10-31T22:31:20.525Z,12.21
2022-10-31T22:33:23.911Z,12.11
2022-10-31T22:35:25.613Z,12.17
2022-10-31T22:37:27.166Z,12.19
2022-10-31T22:39:28.911Z,12.16
2022-10-31T22:41:32.969Z,12.18
2022-10-31T22:43:34.609Z,12.19
2022-10-31T22:45:36.132Z,12.15
2022-10-31T22:49:47.695Z,12.19
2022-10-31T22:51:51.206Z,12.17
2022-10-31T22:53:52.983Z,12.13
2022-10-31T22:55:54.474Z,12.16
2022-10-31T22:57:55.967Z,12.04
2022-10-31T22:59:57.524Z,12.04
2022-10-31T23:01:59.345Z,12.01
2022-10-31T23:04:03.378Z,12.00
2022-10-31T23:06:07.554Z,12.03
2022-10-31T23:08:09.047Z,12.01
2022-10-31T23:10:10.605Z,12.04
2022-10-31T23:12:12.078Z,12.04
2022-10-31T23:14:16.444Z,12.07
2022-10-31T23:16:18.142Z,12.10
2022-10-31T23:18:47.929Z,12.10
2022-10-31T23:20:50.808Z,12.18
2022-10-31T23:22:53.699Z,12.15
2022-10-31T23:24:55.416Z,12.18
2022-10-31T23:26:58.156Z,12.18
2022-10-31T23:28:59.695Z,12.25
2022-10-31T23:31:01.301Z,12.23
2022-10-31T23:33:03.108Z,12.26
2022-10-31T23:35:06.906Z,12.28
2022-10-31T23:39:19.950Z,12.27
2022-10-31T23:41:24.327Z,12.31
2022-10-31T23:43:25.824Z,12.29
2022-10-31T23:45:27.350Z,12.34
2022-10-31T23:47:28.945Z,12.34
2022-10-31T23:49:30.669Z,12.36
2022-10-31T23:51:32.329Z,12.38
2022-10-31T23:53:33.848Z,12.32
2022-10-31T23:55:37.086Z,12.35
2022-10-31T23:57:38.706Z,12.42
2022-10-31T23:59:40.425Z,12.44
